createdAt,value
2022-12-25T00:00:39.984Z,1.70
2022-12-25T00:03:42.767Z,1.52
2022-12-25T00:06:45.040Z,1.77
2022-12-25T00:09:47.158Z,1.20
2022-12-25T00:12:49.701Z,1.50
2022-12-25T00:15:51.939Z,1.27
2022-12-25T00:18:54.252Z,1.73
2022-12-25T00:21:56.385Z,1.48
2022-12-25T00:24:58.553Z,1.43
2022-12-25T00:28:00.715Z,1.80
2022-12-25T00:31:11.376Z,1.52
2022-12-25T00:34:13.606Z,1.80
2022-12-25T00:37:15.804Z,1.20
2022-12-25T00:40:17.982Z,1.40
2022-12-25T00:43:20.165Z,1.70
2022-12-25T00:46:22.369Z,1.50
2022-12-25T00:49:24.712Z,1.38
2022-12-25T00:52:26.891Z,1.50
2022-12-25T00:55:30.900Z,1.40
2022-12-25T00:58:34.178Z,1.60
2022-12-25T01:01:36.589Z,1.52
2022-12-25T01:04:38.841Z,1.45
2022-12-25T01:07:41.071Z,1.80
2022-12-25T01:10:43.251Z,1.42
2022-12-25T01:13:45.935Z,1.52
2022-12-25T01:16:48.189Z,1.47
2022-12-25T01:19:50.713Z,1.70
2022-12-25T01:22:53.219Z,1.40
2022-12-25T01:25:56.115Z,1.50
2022-12-25T01:28:58.251Z,1.50
2022-12-25T01:32:00.438Z,1.45
2022-12-25T01:35:02.762Z,1.20
2022-12-25T01:38:04.898Z,1.60
2022-12-25T01:41:07.266Z,1.45
2022-12-25T01:44:35.296Z,1.30
2022-12-25T01:47:37.657Z,1.20
2022-12-25T01:50:42.732Z,1.50
2022-12-25T01:53:44.917Z,1.20
2022-12-25T01:56:48.340Z,1.50
2022-12-25T01:59:50.556Z,1.40
2022-12-25T02:02:52.827Z,1.17
2022-12-25T02:05:55.183Z,1.48
2022-12-25T02:09:00.168Z,1.30
2022-12-25T02:12:02.422Z,1.45
2022-12-25T02:15:10.757Z,1.45
2022-12-25T02:18:21.139Z,1.20
2022-12-25T02:21:26.388Z,1.60
2022-12-25T02:24:35.514Z,1.73
2022-12-25T02:27:37.576Z,1.70
2022-12-25T02:30:44.676Z,1.60
2022-12-25T02:34:04.485Z,1.80
2022-12-25T02:37:13.217Z,1.77
2022-12-25T02:40:37.327Z,2.10
2022-12-25T02:43:59.970Z,2.00
2022-12-25T02:47:21.199Z,1.92
2022-12-25T02:50:43.748Z,2.37
2022-12-25T02:54:04.846Z,2.20
2022-12-25T02:57:27.581Z,2.13
2022-12-25T03:00:50.383Z,2.10
2022-12-25T03:04:13.666Z,2.00
2022-12-25T03:07:19.472Z,2.13
2022-12-25T03:10:40.452Z,2.22
2022-12-25T03:13:44.914Z,1.90
2022-12-25T03:16:53.054Z,2.17
2022-12-25T03:20:13.590Z,2.05
2022-12-25T03:23:37.884Z,2.00
2022-12-25T03:26:55.151Z,1.85
2022-12-25T03:30:15.584Z,1.90
2022-12-25T03:34:17.437Z,2.10
2022-12-25T03:37:46.017Z,2.25
2022-12-25T03:41:20.983Z,1.90
2022-12-25T03:44:54.230Z,1.60
2022-12-25T03:48:15.573Z,1.65
2022-12-25T03:51:39.556Z,1.88
2022-12-25T03:55:02.298Z,2.10
2022-12-25T03:58:23.158Z,1.70
2022-12-25T04:01:44.069Z,1.70
2022-12-25T04:05:04.843Z,1.63
2022-12-25T04:08:25.639Z,2.00
2022-12-25T04:11:46.008Z,1.58
2022-12-25T04:15:06.818Z,1.77
2022-12-25T04:18:27.574Z,2.33
2022-12-25T04:21:48.007Z,2.10
2022-12-25T04:25:08.519Z,1.67
2022-12-25T04:28:29.174Z,2.20
2022-12-25T04:31:49.583Z,1.70
2022-12-25T04:35:10.472Z,2.13
2022-12-25T04:38:12.577Z,1.90
2022-12-25T04:41:14.816Z,2.10
2022-12-25T04:44:16.963Z,1.70
2022-12-25T04:47:19.160Z,1.75
2022-12-25T04:50:21.310Z,1.85
2022-12-25T04:53:23.495Z,2.03
2022-12-25T04:56:25.701Z,1.90
2022-12-25T04:59:27.881Z,1.80
2022-12-25T05:02:30.233Z,2.20
2022-12-25T05:05:32.584Z,1.85
2022-12-25T05:08:35.698Z,1.55
2022-12-25T05:11:37.896Z,1.80
2022-12-25T05:14:40.150Z,1.80
2022-12-25T05:17:42.305Z,1.40
2022-12-25T05:20:54.656Z,1.77
2022-12-25T05:23:56.831Z,1.60
2022-12-25T05:26:58.971Z,1.70
2022-12-25T05:30:01.092Z,1.80
2022-12-25T05:33:03.648Z,1.77
2022-12-25T05:36:07.511Z,2.10
2022-12-25T05:39:09.686Z,1.90
2022-12-25T05:42:11.822Z,1.53
2022-12-25T05:45:14.013Z,1.90
2022-12-25T05:48:16.475Z,1.80
2022-12-25T05:51:19.800Z,1.55
2022-12-25T05:54:21.882Z,1.90
2022-12-25T05:57:23.981Z,1.67
2022-12-25T06:00:26.110Z,1.90
2022-12-25T06:03:28.363Z,1.77
2022-12-25T06:06:30.670Z,2.20
2022-12-25T06:09:32.777Z,1.63
2022-12-25T06:12:34.903Z,1.70
2022-12-25T06:15:40.953Z,1.80
2022-12-25T06:18:46.650Z,1.88
2022-12-25T06:21:48.917Z,1.50
2022-12-25T06:24:51.511Z,2.00
2022-12-25T06:27:53.693Z,2.00
2022-12-25T06:30:56.520Z,1.95
2022-12-25T06:33:58.619Z,1.63
2022-12-25T06:37:00.702Z,1.77
2022-12-25T06:40:02.887Z,2.00
2022-12-25T06:43:04.985Z,1.73
2022-12-25T06:46:09.970Z,2.28
2022-12-25T06:49:12.355Z,2.08
2022-12-25T06:52:14.521Z,2.10
2022-12-25T06:55:16.762Z,2.40
2022-12-25T06:58:19.056Z,2.15
2022-12-25T07:01:34.338Z,2.90
2022-12-25T07:04:40.909Z,2.37
2022-12-25T07:07:43.089Z,2.45
2022-12-25T07:10:45.189Z,2.50
2022-12-25T07:13:47.448Z,2.30
2022-12-25T07:16:50.177Z,2.40
2022-12-25T07:19:52.691Z,2.65
2022-12-25T07:22:54.859Z,2.53
2022-12-25T07:25:58.768Z,2.50
2022-12-25T07:29:01.009Z,2.97
2022-12-25T07:32:03.407Z,2.60
2022-12-25T07:35:05.926Z,2.67
2022-12-25T07:38:08.132Z,2.90
2022-12-25T07:41:11.755Z,2.72
2022-12-25T07:44:13.875Z,2.70
2022-12-25T07:47:16.506Z,2.88
2022-12-25T07:50:18.629Z,2.97
2022-12-25T07:53:20.739Z,2.85
2022-12-25T07:56:23.221Z,3.17
2022-12-25T07:59:25.497Z,2.95
2022-12-25T08:02:29.078Z,3.20
2022-12-25T08:05:33.001Z,3.27
2022-12-25T08:08:36.212Z,3.70
2022-12-25T08:11:38.997Z,3.42
2022-12-25T08:14:41.181Z,3.73
2022-12-25T08:17:43.359Z,3.58
2022-12-25T08:20:45.438Z,4.10
2022-12-25T08:23:48.312Z,3.90
2022-12-25T08:26:52.870Z,3.88
2022-12-25T08:29:55.045Z,3.97
2022-12-25T08:32:57.245Z,3.88
2022-12-25T08:36:04.980Z,3.60
2022-12-25T08:39:10.374Z,4.18
2022-12-25T08:42:12.565Z,4.05
2022-12-25T08:45:14.728Z,3.93
2022-12-25T08:48:16.904Z,3.65
2022-12-25T08:51:21.171Z,3.60
2022-12-25T08:54:24.725Z,4.18
2022-12-25T08:57:26.868Z,4.03
2022-12-25T09:00:29.306Z,4.13
2022-12-25T09:03:34.977Z,3.95
2022-12-25T09:06:37.207Z,4.00
2022-12-25T09:09:39.748Z,4.28
2022-12-25T09:12:41.876Z,4.22
2022-12-25T09:15:44.162Z,4.17
2022-12-25T09:18:46.616Z,4.10
2022-12-25T09:21:48.844Z,4.28
2022-12-25T09:24:51.011Z,4.05
2022-12-25T09:27:53.157Z,4.20
2022-12-25T09:30:55.686Z,4.13
2022-12-25T09:33:58.221Z,4.18
2022-12-25T09:37:02.345Z,3.40
2022-12-25T09:40:05.026Z,4.00
2022-12-25T09:43:11.014Z,3.47
2022-12-25T09:46:20.531Z,4.80
2022-12-25T09:49:39.290Z,3.88
2022-12-25T09:52:46.455Z,3.67
2022-12-25T09:55:57.022Z,3.85
2022-12-25T09:58:59.338Z,3.45
2022-12-25T10:02:21.981Z,3.72
2022-12-25T10:05:43.114Z,4.13
2022-12-25T10:08:56.522Z,3.50
2022-12-25T10:12:27.054Z,3.40
2022-12-25T10:15:45.847Z,3.65
2022-12-25T10:18:57.361Z,3.80
2022-12-25T10:22:02.914Z,3.58
2022-12-25T10:25:07.116Z,3.90
2022-12-25T10:28:15.383Z,3.78
2022-12-25T10:31:26.487Z,3.55
2022-12-25T10:34:28.879Z,3.80
2022-12-25T10:37:31.055Z,3.95
2022-12-25T10:40:39.173Z,3.20
2022-12-25T10:43:49.272Z,3.35
2022-12-25T10:46:54.643Z,3.50
2022-12-25T10:49:57.246Z,3.90
2022-12-25T10:53:05.163Z,3.60
2022-12-25T10:56:07.902Z,3.55
2022-12-25T10:59:11.058Z,3.60
2022-12-25T11:02:35.088Z,3.22
2022-12-25T11:05:37.477Z,4.00
2022-12-25T11:08:39.692Z,3.55
2022-12-25T11:11:41.926Z,3.27
2022-12-25T11:14:53.228Z,3.38
2022-12-25T11:17:55.473Z,3.03
2022-12-25T11:21:00.051Z,2.93
2022-12-25T11:24:07.477Z,3.15
2022-12-25T11:27:27.606Z,3.33
2022-12-25T11:30:31.416Z,3.30
2022-12-25T11:33:37.638Z,3.70
2022-12-25T11:36:50.828Z,3.50
2022-12-25T11:39:55.704Z,3.35
2022-12-25T11:43:08.173Z,3.47
2022-12-25T11:46:16.402Z,3.75
2022-12-25T11:49:19.820Z,3.20
2022-12-25T11:52:22.878Z,3.73
2022-12-25T11:55:37.123Z,3.08
2022-12-25T11:58:44.235Z,3.55
2022-12-25T12:01:55.050Z,3.08
2022-12-25T12:05:24.081Z,3.00
2022-12-25T12:08:26.312Z,3.67
2022-12-25T12:11:33.684Z,3.50
2022-12-25T12:14:45.918Z,3.10
2022-12-25T12:17:48.084Z,3.50
2022-12-25T12:21:04.878Z,2.92
2022-12-25T12:24:18.589Z,2.83
2022-12-25T12:27:36.246Z,3.10
2022-12-25T12:30:38.468Z,3.03
2022-12-25T12:33:49.511Z,2.95
2022-12-25T12:36:58.503Z,3.53
2022-12-25T12:40:01.405Z,3.10
2022-12-25T12:43:04.684Z,2.67
2022-12-25T12:46:30.079Z,2.50
2022-12-25T12:49:33.635Z,3.22
2022-12-25T12:52:37.574Z,2.75
2022-12-25T12:55:39.730Z,3.00
2022-12-25T12:58:52.236Z,3.30
2022-12-25T13:02:26.775Z,2.78
2022-12-25T13:05:34.157Z,3.20
2022-12-25T13:09:09.225Z,2.85
2022-12-25T13:12:12.578Z,3.50
2022-12-25T13:15:15.006Z,3.17
2022-12-25T13:18:17.625Z,2.70
2022-12-25T13:21:23.215Z,2.97
2022-12-25T13:24:27.668Z,2.83
2022-12-25T13:27:32.519Z,3.10
2022-12-25T13:30:34.661Z,2.88
2022-12-25T13:33:37.632Z,2.67
2022-12-25T13:36:40.268Z,3.25
2022-12-25T13:40:04.022Z,3.05
2022-12-25T13:43:06.614Z,3.50
2022-12-25T13:46:12.848Z,2.67
2022-12-25T13:49:17.608Z,3.50
2022-12-25T13:52:31.813Z,2.83
2022-12-25T13:55:33.935Z,2.75
2022-12-25T13:58:37.173Z,2.43
2022-12-25T14:01:43.134Z,2.78
2022-12-25T14:04:45.768Z,2.40
2022-12-25T14:07:53.157Z,2.67
2022-12-25T14:10:55.833Z,2.42
2022-12-25T14:14:21.776Z,2.30
2022-12-25T14:17:24.580Z,2.50
2022-12-25T14:20:32.622Z,2.60
2022-12-25T14:23:43.147Z,2.88
2022-12-25T14:26:45.402Z,2.72
2022-12-25T14:29:49.063Z,2.23
2022-12-25T14:32:53.854Z,2.78
2022-12-25T14:35:56.566Z,2.50
2022-12-25T14:39:03.920Z,2.30
2022-12-25T14:42:41.935Z,2.45
2022-12-25T14:45:54.431Z,2.55
2022-12-25T14:49:04.437Z,2.42
2022-12-25T14:52:21.457Z,2.60
2022-12-25T14:55:27.203Z,2.60
2022-12-25T14:58:31.225Z,2.65
2022-12-25T15:01:41.062Z,2.90
2022-12-25T15:04:44.097Z,2.95
2022-12-25T15:07:46.346Z,2.50
2022-12-25T15:11:04.715Z,2.70
2022-12-25T15:14:07.026Z,2.50
2022-12-25T15:17:26.282Z,2.50
2022-12-25T15:20:32.009Z,2.83
2022-12-25T15:23:34.133Z,2.53
2022-12-25T15:26:36.317Z,2.55
2022-12-25T15:30:08.568Z,3.25
2022-12-25T15:33:00.561Z,2.40
2022-12-25T15:36:02.750Z,2.40
2022-12-25T15:39:04.896Z,2.95
2022-12-25T15:42:19.555Z,2.40
2022-12-25T15:45:24.498Z,2.53
2022-12-25T15:48:26.634Z,2.95
2022-12-25T15:51:28.927Z,2.75
2022-12-25T15:54:32.319Z,3.30
2022-12-25T15:57:35.124Z,3.13
2022-12-25T16:00:37.334Z,2.60
2022-12-25T16:03:39.520Z,3.07
2022-12-25T16:06:41.826Z,2.60
2022-12-25T16:09:44.322Z,2.85
2022-12-25T16:12:46.853Z,2.85
2022-12-25T16:15:51.392Z,3.40
2022-12-25T16:18:53.569Z,3.03
2022-12-25T16:21:55.928Z,2.78
2022-12-25T16:24:58.085Z,3.00
2022-12-25T16:28:03.041Z,3.08
2022-12-25T16:31:05.424Z,3.20
2022-12-25T16:34:08.161Z,3.33
2022-12-25T16:37:10.438Z,3.33
2022-12-25T16:40:12.754Z,3.20
2022-12-25T16:43:20.296Z,3.40
2022-12-25T16:46:25.950Z,2.97
2022-12-25T16:49:28.155Z,3.47
2022-12-25T16:52:34.722Z,3.42
2022-12-25T16:55:39.986Z,3.10
2022-12-25T16:58:46.701Z,3.47
2022-12-25T17:01:49.024Z,3.80
2022-12-25T17:04:51.206Z,2.70
2022-12-25T17:07:53.349Z,3.22
2022-12-25T17:10:55.922Z,3.00
2022-12-25T17:14:03.635Z,3.00
2022-12-25T17:17:05.860Z,3.25
2022-12-25T17:20:08.444Z,3.38
2022-12-25T17:23:10.607Z,3.38
2022-12-25T17:26:12.766Z,3.33
2022-12-25T17:29:20.101Z,3.15
2022-12-25T17:32:24.359Z,3.40
2022-12-25T17:35:26.517Z,3.00
2022-12-25T17:38:30.589Z,2.97
2022-12-25T17:41:33.011Z,3.00
2022-12-25T17:44:35.181Z,3.53
2022-12-25T17:47:37.326Z,3.17
2022-12-25T17:50:41.596Z,3.30
2022-12-25T17:53:46.511Z,3.17
2022-12-25T17:56:49.438Z,3.10
2022-12-25T17:59:51.676Z,3.13
2022-12-25T18:02:56.638Z,3.55
2022-12-25T18:06:06.233Z,3.30
2022-12-25T18:09:09.727Z,2.88
2022-12-25T18:12:11.919Z,3.00
2022-12-25T18:15:14.072Z,3.00
2022-12-25T18:18:16.195Z,3.20
2022-12-25T18:21:18.383Z,2.90
2022-12-25T18:24:20.494Z,3.30
2022-12-25T18:27:22.829Z,3.07
2022-12-25T18:30:25.037Z,3.42
2022-12-25T18:33:27.589Z,2.85
2022-12-25T18:36:30.362Z,2.93
2022-12-25T18:39:33.365Z,2.75
2022-12-25T18:42:41.394Z,3.20
2022-12-25T18:45:44.061Z,3.10
2022-12-25T18:48:46.269Z,3.05
2022-12-25T18:51:48.886Z,3.40
2022-12-25T18:54:51.078Z,3.45
2022-12-25T18:57:53.396Z,2.97
2022-12-25T19:00:55.825Z,2.95
2022-12-25T19:04:04.458Z,3.22
2022-12-25T19:07:07.575Z,3.10
2022-12-25T19:10:10.449Z,3.78
2022-12-25T19:13:12.651Z,2.97
2022-12-25T19:16:15.232Z,3.60
2022-12-25T19:19:17.797Z,3.40
2022-12-25T19:22:20.011Z,3.75
2022-12-25T19:25:22.125Z,3.78
2022-12-25T19:28:25.134Z,3.20
2022-12-25T19:31:30.034Z,3.65
2022-12-25T19:34:32.196Z,3.60
2022-12-25T19:37:34.323Z,3.40
2022-12-25T19:40:40.339Z,3.70
2022-12-25T19:43:44.048Z,3.80
2022-12-25T19:46:46.251Z,3.58
2022-12-25T19:49:52.880Z,4.00
2022-12-25T19:52:55.596Z,3.38
2022-12-25T19:56:01.524Z,3.70
2022-12-25T19:59:03.725Z,3.57
2022-12-25T20:02:06.091Z,3.55
2022-12-25T20:05:08.348Z,3.80
2022-12-25T20:08:10.600Z,3.70
2022-12-25T20:11:12.909Z,3.38
2022-12-25T20:14:16.631Z,3.40
2022-12-25T20:17:18.859Z,3.85
2022-12-25T20:20:21.109Z,3.53
2022-12-25T20:23:23.289Z,4.13
2022-12-25T20:26:28.915Z,3.72
2022-12-25T20:29:31.078Z,3.33
2022-12-25T20:32:33.235Z,4.00
2022-12-25T20:35:35.590Z,3.55
2022-12-25T20:38:37.749Z,3.80
2022-12-25T20:41:40.524Z,3.75
2022-12-25T20:44:43.141Z,3.80
2022-12-25T20:47:45.312Z,3.50
2022-12-25T20:50:47.514Z,3.55
2022-12-25T20:53:50.084Z,3.55
2022-12-25T20:56:52.223Z,3.85
2022-12-25T20:59:54.512Z,3.10
2022-12-25T21:02:56.689Z,3.30
2022-12-25T21:05:59.705Z,3.78
2022-12-25T21:09:02.262Z,3.50
2022-12-25T21:12:04.631Z,4.00
2022-12-25T21:15:13.346Z,4.05
2022-12-25T21:18:19.175Z,3.75
2022-12-25T21:21:22.070Z,3.88
2022-12-25T21:24:24.319Z,3.35
2022-12-25T21:27:26.459Z,3.42
2022-12-25T21:30:28.610Z,3.90
2022-12-25T21:33:49.425Z,3.33
2022-12-25T21:36:51.757Z,3.38
2022-12-25T21:39:53.914Z,3.40
2022-12-25T21:42:56.180Z,3.38
2022-12-25T21:46:05.381Z,3.63
2022-12-25T21:49:07.606Z,3.72
2022-12-25T21:52:09.793Z,4.13
2022-12-25T21:55:11.967Z,3.47
2022-12-25T21:58:14.099Z,4.10
2022-12-25T22:01:16.799Z,3.57
2022-12-25T22:04:21.598Z,3.80
2022-12-25T22:07:23.798Z,3.20
2022-12-25T22:10:26.061Z,4.10
2022-12-25T22:13:47.073Z,3.40
2022-12-25T22:17:07.524Z,3.90
2022-12-25T22:20:12.699Z,3.70
2022-12-25T22:23:16.177Z,3.90
2022-12-25T22:26:21.059Z,3.90
2022-12-25T22:29:23.403Z,3.78
2022-12-25T22:32:25.885Z,3.83
2022-12-25T22:35:28.047Z,3.78
2022-12-25T22:38:30.543Z,3.20
2022-12-25T22:41:33.776Z,3.50
2022-12-25T22:44:36.395Z,3.65
2022-12-25T22:47:38.667Z,3.60
2022-12-25T22:50:40.851Z,3.92
2022-12-25T22:53:42.973Z,3.17
2022-12-25T22:56:47.843Z,3.78
2022-12-25T22:59:51.969Z,3.72
2022-12-25T23:02:54.294Z,3.50
2022-12-25T23:05:56.984Z,3.90
2022-12-25T23:08:59.734Z,3.58
2022-12-25T23:12:01.900Z,4.00
2022-12-25T23:15:05.870Z,4.10
2022-12-25T23:18:27.865Z,3.63
2022-12-25T23:21:49.076Z,3.60
2022-12-25T23:25:09.711Z,3.70
2022-12-25T23:28:11.951Z,3.83
2022-12-25T23:31:14.399Z,3.63
2022-12-25T23:34:16.580Z,3.77
2022-12-25T23:37:19.196Z,3.95
2022-12-25T23:40:21.426Z,3.85
2022-12-25T23:43:23.619Z,3.70
2022-12-25T23:46:25.844Z,3.38
2022-12-25T23:49:28.377Z,3.55
2022-12-25T23:52:30.454Z,3.75
2022-12-25T23:55:33.517Z,3.35
2022-12-25T23:58:35.757Z,3.97
